METAR AND TAF INFORMATION
METAR FOR EBAW
ADDS - METARS form results

(2216 UTC 04 August 2021)
Data provider http://aviationweather.gov/metar/data/
 
METAR text: EBAW 042150Z AUTO VRB01KT CAVOK 18/14 Q1012
Conditions at: EBAW (ANTWERP/DEURNE , BE) observed 2150 UTC 04 August 2021
Temperature: 18.0°C (64°F)
Dewpoint: 14.0°C (57°F) [RH = 77%]
Pressure (altimeter): 29.88 inches Hg (1012.0 mb)
Winds: variable direction winds at 1 MPH (1 knots; 0.5 m/s)
Visibility: 6 or more miles (10+ km)
Ceiling: ceiling and visibility are OK
Clouds: unknown
Weather: no significant weather observed at this time

METAR text: EBAW 042120Z AUTO VRB01KT CAVOK 18/13 Q1012
Conditions at: EBAW (ANTWERP/DEURNE , BE) observed 2120 UTC 04 August 2021
Temperature: 18.0°C (64°F)
Dewpoint: 13.0°C (55°F) [RH = 73%]
Pressure (altimeter): 29.88 inches Hg (1012.0 mb)
Winds: variable direction winds at 1 MPH (1 knots; 0.5 m/s)
Visibility: 6 or more miles (10+ km)
Ceiling: ceiling and visibility are OK
Clouds: unknown
Weather: no significant weather observed at this time

Forecast for: EBAW (ANTWERP/DEURNE , BE)
Text: TAF EBAW 042000Z 0421/0506 VRB03KT 9999 FEW040TCU
Forecast period: 2100 UTC 04 August 2021 to 0600 UTC 05 August 2021
Forecast type: FROM: standard forecast or significant change
Winds: variable direction winds at 3 MPH (3 knots; 1.5 m/s)
Visibility: 6 or more miles (10+ km)
Ceiling: at least 12,000 feet AGL
Clouds: few clouds at 4000 feet AGL
Weather: no significant weather forecast for this period
Text: PROB30
Forecast period: 2100 UTC 04 August 2021 to 0000 UTC 05 August 2021
Forecast type: TEMPORARY: The following changes expected for less than half the time period
Visibility: 2.80 miles (4.51 km)
Ceiling: unknown
Clouds: missing
Weather: SHRA  (rain showers)
Text: TEMPO 0421/0424 4500 SHRA
Forecast period: 0300 to 0600 UTC 05 August 2021
Forecast type: TEMPORARY: The following changes expected for less than half the time period
Visibility: 1.86 miles (2.99 km)
Ceiling: unknown
Clouds: missing
Weather: BR  (mist)

 AIRPORT MAP

 RUNWAY INFORMATION
Runway 11 Runway length 4954 ft Runway width 148 ft
Runway elevation 36 ft Runway displaced threshold 472 ft Runway heading 110
Runway 29 Runway length 4954 ft Runway width 148 ft
Runway elevation 39 ft Runway displaced threshold 0 ft Runway heading 290

 AIRPORT FREQUENCIES
Type APP Name BRUSSELS A Frequency 118.25 MHZ
Type GND Name ANTWERPEN Frequency 121.9 MHZ
Type TWR Name ANTWERPEN Frequency 135.2 MHZ
Type ATIS Name Frequency 122.4 MHZ

 AIRPORT NEAR NAVIGATION AIDS
Type VOR-DME Name Antwerpen Frequency 113500 KHZ
Type VOR-DME Name Nicky Frequency 117400 KHZ
Type NDB Name Antwerpen Frequency 355 KHZ
Type NDB Name Antwerp Frequency 309 KHZ





Powered by Virtual Airlines Manager

Maps by Rafael Santos